Time;durP1;ratioP1;P1;durP2;ratioP2;P2;SDS_P1;SDS_P2;PMS_P1;PMS_P2;Temp;Humidity;BMP_temperature;BMP_pressure;BME280_temperature;BME280_humidity;BME280_pressure;Samples;Min_cycle;Max_cycle;Signal;HPM_P1;HPM_P2
2024/01/15 00:02:01;;;;;;;14.77;5.25;;;;;;;;;;6257956;28;20048;-83
2024/01/15 00:05:04;;;;;;;12.45;4.85;;;;;;;;;;6233397;28;20052;-83
2024/01/15 00:08:05;;;;;;;13.75;5.70;;;;;;;;;;6243071;28;20055;-83
2024/01/15 00:11:07;;;;;;;12.45;5.18;;;;;;;;;;6244552;28;20053;-84
2024/01/15 00:14:09;;;;;;;10.60;4.50;;;;;;;;;;6232871;28;20045;-84
2024/01/15 00:17:13;;;;;;;15.35;5.22;;;;;;;;;;6256938;28;20056;-84
2024/01/15 00:20:15;;;;;;;15.70;5.25;;;;;;;;;;6247209;28;20177;-82
2024/01/15 00:23:17;;;;;;;13.80;5.15;;;;;;;;;;6263076;28;20038;-82
2024/01/15 00:26:19;;;;;;;14.85;6.03;;;;;;;;;;6280463;28;20049;-82
2024/01/15 00:29:20;;;;;;;8.43;3.75;;;;;;;;;;6241856;28;20056;-83
2024/01/15 00:32:22;;;;;;;9.40;4.25;;;;;;;;;;6253913;28;20049;-83
2024/01/15 00:35:24;;;;;;;12.30;4.35;;;;;;;;;;6241770;28;20048;-82
2024/01/15 00:38:26;;;;;;;13.77;4.85;;;;;;;;;;6238785;28;20063;-82
2024/01/15 00:41:27;;;;;;;12.90;4.60;;;;;;;;;;6248149;28;20060;-83
2024/01/15 00:44:29;;;;;;;10.70;4.20;;;;;;;;;;6243297;28;20132;-83
2024/01/15 00:47:31;;;;;;;11.75;4.65;;;;;;;;;;6252494;28;20057;-83
2024/01/15 00:50:33;;;;;;;9.18;3.58;;;;;;;;;;6229396;28;20995;-83
2024/01/15 00:53:34;;;;;;;14.43;4.63;;;;;;;;;;6249837;28;20044;-83
2024/01/15 00:56:37;;;;;;;9.27;3.78;;;;;;;;;;6247730;28;20091;-83
2024/01/15 00:59:39;;;;;;;8.37;4.00;;;;;;;;;;6239791;28;20064;-84
2024/01/15 01:02:41;;;;;;;8.57;3.72;;;;;;;;;;6233464;28;20072;-83
2024/01/15 01:05:43;;;;;;;11.38;4.45;;;;;;;;;;6243465;28;20038;-84
2024/01/15 01:08:45;;;;;;;9.17;4.43;;;;;;;;;;6228650;28;20154;-84
2024/01/15 01:11:47;;;;;;;11.55;4.13;;;;;;;;;;6253469;28;20041;-83
2024/01/15 01:14:49;;;;;;;10.68;4.53;;;;;;;;;;6244230;28;20048;-83
2024/01/15 01:17:51;;;;;;;14.02;5.05;;;;;;;;;;6228487;28;20132;-83
2024/01/15 01:20:53;;;;;;;10.35;4.53;;;;;;;;;;6231588;28;20540;-84
2024/01/15 01:23:55;;;;;;;12.40;4.75;;;;;;;;;;6245053;28;20037;-83
2024/01/15 01:26:56;;;;;;;9.93;4.15;;;;;;;;;;6255137;28;20051;-83
2024/01/15 01:29:58;;;;;;;8.15;3.85;;;;;;;;;;6243799;28;20061;-84
2024/01/15 01:33:00;;;;;;;11.98;4.55;;;;;;;;;;6241044;28;20402;-83
2024/01/15 01:36:07;;;;;;;13.60;4.68;;;;;;;;;;6263768;28;20045;-83
2024/01/15 01:39:09;;;;;;;9.45;4.00;;;;;;;;;;6253245;28;20099;-83
2024/01/15 01:42:12;;;;;;;8.45;4.05;;;;;;;;;;6240927;28;20041;-83
2024/01/15 01:45:14;;;;;;;15.38;4.85;;;;;;;;;;6242283;28;20049;-84
2024/01/15 01:48:16;;;;;;;14.77;4.50;;;;;;;;;;6255061;28;20040;-83
2024/01/15 01:51:19;;;;;;;11.75;4.50;;;;;;;;;;6259563;28;20368;-84
2024/01/15 01:54:21;;;;;;;12.25;4.28;;;;;;;;;;6256796;28;20063;-84
2024/01/15 01:57:23;;;;;;;11.65;4.53;;;;;;;;;;6245447;28;20048;-83
2024/01/15 02:00:25;;;;;;;11.35;4.57;;;;;;;;;;6236850;28;20720;-83
2024/01/15 02:03:28;;;;;;;16.25;5.57;;;;;;;;;;6250286;28;20416;-83
2024/01/15 02:06:30;;;;;;;10.93;4.97;;;;;;;;;;6262270;28;20141;-83
2024/01/15 02:09:32;;;;;;;15.88;5.10;;;;;;;;;;6240898;28;20053;-83
2024/01/15 02:12:34;;;;;;;12.73;5.65;;;;;;;;;;6238927;28;20049;-83
2024/01/15 02:15:35;;;;;;;15.05;5.25;;;;;;;;;;6228212;28;20049;-83
2024/01/15 02:18:41;;;;;;;15.23;5.38;;;;;;;;;;6243278;28;20567;-84
2024/01/15 02:21:44;;;;;;;16.10;6.05;;;;;;;;;;6253069;28;20135;-83
2024/01/15 02:24:46;;;;;;;15.97;5.87;;;;;;;;;;6233742;28;20060;-83
2024/01/15 02:27:48;;;;;;;13.90;5.47;;;;;;;;;;6242128;28;20448;-83
2024/01/15 02:30:49;;;;;;;20.25;6.20;;;;;;;;;;6256647;28;20048;-84
2024/01/15 02:33:51;;;;;;;21.63;6.57;;;;;;;;;;6238613;28;20033;-83
2024/01/15 02:36:53;;;;;;;15.20;5.85;;;;;;;;;;6248047;28;20111;-83
2024/01/15 02:39:55;;;;;;;16.10;5.15;;;;;;;;;;6246734;28;20049;-83
2024/01/15 02:42:57;;;;;;;13.73;5.47;;;;;;;;;;6243487;28;20049;-84
2024/01/15 02:45:58;;;;;;;16.95;5.57;;;;;;;;;;6251913;28;20049;-83
2024/01/15 02:49:00;;;;;;;17.65;6.40;;;;;;;;;;6239361;28;20042;-83
2024/01/15 02:52:02;;;;;;;16.70;6.20;;;;;;;;;;6241269;28;20064;-83
2024/01/15 02:55:04;;;;;;;15.20;5.47;;;;;;;;;;6233398;28;20049;-83
2024/01/15 02:58:07;;;;;;;18.55;5.88;;;;;;;;;;6257030;28;20054;-83
2024/01/15 03:01:09;;;;;;;16.33;5.57;;;;;;;;;;6263161;28;20063;-84
2024/01/15 03:04:11;;;;;;;11.52;5.25;;;;;;;;;;6260117;28;20048;-83
2024/01/15 03:07:13;;;;;;;15.93;6.43;;;;;;;;;;6230478;28;20477;-83
2024/01/15 03:10:14;;;;;;;14.05;6.05;;;;;;;;;;6262174;28;20056;-82
2024/01/15 03:13:16;;;;;;;14.80;5.97;;;;;;;;;;6268366;28;20057;-83
2024/01/15 03:16:19;;;;;;;16.85;5.78;;;;;;;;;;6247513;28;20049;-83
2024/01/15 03:19:21;;;;;;;12.25;5.03;;;;;;;;;;6236782;28;20064;-84
2024/01/15 03:22:24;;;;;;;14.07;5.20;;;;;;;;;;6256322;28;20397;-84
2024/01/15 03:25:25;;;;;;;12.27;5.28;;;;;;;;;;6241241;28;20049;-83
2024/01/15 03:28:27;;;;;;;11.27;4.68;;;;;;;;;;6247785;28;20415;-85
2024/01/15 03:31:29;;;;;;;14.77;5.93;;;;;;;;;;6259228;28;20436;-83
2024/01/15 03:34:31;;;;;;;13.35;5.97;;;;;;;;;;6231435;28;20057;-83
2024/01/15 03:37:32;;;;;;;12.93;4.72;;;;;;;;;;6262243;28;20037;-84
2024/01/15 03:40:34;;;;;;;13.27;4.85;;;;;;;;;;6260613;28;20052;-84
2024/01/15 03:43:36;;;;;;;11.70;4.75;;;;;;;;;;6236171;28;20052;-83
2024/01/15 03:46:39;;;;;;;11.88;4.60;;;;;;;;;;6258409;28;20061;-83
2024/01/15 03:49:40;;;;;;;11.83;4.73;;;;;;;;;;6251970;28;20049;-83
2024/01/15 03:52:42;;;;;;;12.80;5.05;;;;;;;;;;6250471;28;20454;-83
2024/01/15 03:55:44;;;;;;;13.23;4.70;;;;;;;;;;6251617;28;20136;-83
2024/01/15 03:58:46;;;;;;;13.25;4.90;;;;;;;;;;6234327;28;20049;-83
2024/01/15 04:01:50;;;;;;;10.23;4.60;;;;;;;;;;6232349;28;20042;-84
2024/01/15 04:04:51;;;;;;;13.73;4.95;;;;;;;;;;6250026;28;20060;-83
2024/01/15 04:07:53;;;;;;;14.68;5.68;;;;;;;;;;6255440;28;20052;-83
2024/01/15 04:10:55;;;;;;;12.20;4.55;;;;;;;;;;6241540;28;20041;-83
2024/01/15 04:13:57;;;;;;;11.13;4.67;;;;;;;;;;6252551;28;20037;-83
2024/01/15 04:16:59;;;;;;;11.55;5.00;;;;;;;;;;6257898;28;20463;-83
2024/01/15 04:20:01;;;;;;;11.88;4.70;;;;;;;;;;6243173;28;20053;-83
2024/01/15 04:23:02;;;;;;;13.20;5.10;;;;;;;;;;6241079;28;20060;-85
2024/01/15 04:26:04;;;;;;;11.98;4.93;;;;;;;;;;6241502;28;20042;-82
2024/01/15 04:29:06;;;;;;;10.82;4.95;;;;;;;;;;6238509;28;20128;-84
2024/01/15 04:32:08;;;;;;;10.85;4.70;;;;;;;;;;6252391;28;20045;-83
2024/01/15 04:35:09;;;;;;;15.18;5.18;;;;;;;;;;6250192;28;20045;-83
2024/01/15 04:38:11;;;;;;;13.98;4.75;;;;;;;;;;6250303;28;20532;-83
2024/01/15 04:41:14;;;;;;;9.45;3.92;;;;;;;;;;6241249;28;20196;-83
2024/01/15 04:44:15;;;;;;;9.87;4.73;;;;;;;;;;6239843;28;20040;-83
2024/01/15 04:47:17;;;;;;;10.02;4.97;;;;;;;;;;6242032;28;20040;-86
2024/01/15 04:50:19;;;;;;;10.57;4.47;;;;;;;;;;6260182;28;20042;-85
2024/01/15 04:53:21;;;;;;;12.02;4.25;;;;;;;;;;6259163;28;20052;-86
2024/01/15 04:56:23;;;;;;;9.65;4.53;;;;;;;;;;6254800;28;20091;-86
2024/01/15 04:59:24;;;;;;;8.73;4.13;;;;;;;;;;6256798;28;20112;-87
2024/01/15 05:02:26;;;;;;;8.73;4.25;;;;;;;;;;6261243;28;20048;-86
2024/01/15 05:05:28;;;;;;;10.35;4.47;;;;;;;;;;6253866;28;20049;-85
2024/01/15 05:08:32;;;;;;;11.40;4.38;;;;;;;;;;6289405;22;20038;-80
2024/01/15 05:11:40;;;;;;;8.35;4.15;;;;;;;;;;6160491;28;20041;-83
2024/01/15 05:14:47;;;;;;;12.15;3.95;;;;;;;;;;6156041;28;20129;-81
2024/01/15 05:17:52;;;;;;;9.63;4.55;;;;;;;;;;6170075;28;20544;-81
2024/01/15 05:20:58;;;;;;;9.18;4.07;;;;;;;;;;6135101;28;20049;-83
2024/01/15 05:24:05;;;;;;;12.30;5.50;;;;;;;;;;6108438;28;20057;-80
2024/01/15 05:27:13;;;;;;;14.70;4.78;;;;;;;;;;6114100;28;20415;-83
2024/01/15 05:30:16;;;;;;;10.10;4.57;;;;;;;;;;6162544;28;20371;-83
2024/01/15 05:33:18;;;;;;;10.68;4.15;;;;;;;;;;6167620;28;20170;-81
2024/01/15 05:36:23;;;;;;;12.70;4.93;;;;;;;;;;6180647;28;20130;-83
2024/01/15 05:39:31;;;;;;;11.00;4.75;;;;;;;;;;6103856;28;20162;-83
2024/01/15 05:42:40;;;;;;;14.27;4.78;;;;;;;;;;6107372;28;20200;-83
2024/01/15 05:45:48;;;;;;;13.85;5.05;;;;;;;;;;6111508;28;20042;-81
2024/01/15 05:48:56;;;;;;;10.15;4.00;;;;;;;;;;6114820;28;20046;-83
2024/01/15 05:52:04;;;;;;;12.52;5.30;;;;;;;;;;6101276;28;20088;-81
2024/01/15 05:55:10;;;;;;;10.85;4.47;;;;;;;;;;6127924;28;20057;-82
2024/01/15 05:58:18;;;;;;;13.50;4.95;;;;;;;;;;6126319;28;20145;-79
2024/01/15 06:01:23;;;;;;;16.38;6.32;;;;;;;;;;6136296;28;20050;-82
2024/01/15 06:04:33;;;;;;;12.65;5.35;;;;;;;;;;6129578;28;20055;-82
2024/01/15 06:07:47;;;;;;;13.88;5.57;;;;;;;;;;6099351;28;20333;-79
2024/01/15 06:11:00;;;;;;;13.35;4.60;;;;;;;;;;6125251;28;20043;-79
2024/01/15 06:14:08;;;;;;;11.93;4.97;;;;;;;;;;6131005;28;20128;-81
2024/01/15 06:17:18;;;;;;;14.55;5.05;;;;;;;;;;6093507;28;20050;-81
2024/01/15 06:20:24;;;;;;;13.77;5.70;;;;;;;;;;6138933;28;20049;-81
2024/01/15 06:23:30;;;;;;;14.23;5.22;;;;;;;;;;6124186;28;20049;-82
2024/01/15 06:26:34;;;;;;;13.23;6.13;;;;;;;;;;6162529;28;20042;-80
2024/01/15 06:29:39;;;;;;;11.07;4.00;;;;;;;;;;6112546;28;20101;-79
2024/01/15 06:32:42;;;;;;;13.85;5.43;;;;;;;;;;6152820;28;21440;-80
2024/01/15 06:35:49;;;;;;;12.98;6.13;;;;;;;;;;6145438;28;20130;-81
2024/01/15 06:38:54;;;;;;;13.68;5.43;;;;;;;;;;6129258;28;20042;-78
2024/01/15 06:42:00;;;;;;;18.10;6.75;;;;;;;;;;6149777;28;20054;-83
2024/01/15 06:45:04;;;;;;;15.77;5.30;;;;;;;;;;6098479;28;20050;-82
2024/01/15 06:48:19;;;;;;;16.45;6.40;;;;;;;;;;6126385;28;20527;-83
2024/01/15 06:51:25;;;;;;;16.77;6.80;;;;;;;;;;6130435;28;20047;-83
2024/01/15 06:54:29;;;;;;;20.63;7.28;;;;;;;;;;6130600;28;20423;-81
2024/01/15 06:57:35;;;;;;;15.73;5.90;;;;;;;;;;6143701;28;20088;-77
2024/01/15 07:00:40;;;;;;;22.35;8.15;;;;;;;;;;6166504;28;20141;-81
2024/01/15 07:03:46;;;;;;;14.15;6.57;;;;;;;;;;6152996;28;20113;-81
2024/01/15 07:06:51;;;;;;;20.90;6.90;;;;;;;;;;6137124;28;20038;-81
2024/01/15 07:09:53;;;;;;;16.90;6.45;;;;;;;;;;6167981;28;20047;-81
2024/01/15 07:12:55;;;;;;;20.33;7.28;;;;;;;;;;6166956;28;20058;-77
2024/01/15 07:15:59;;;;;;;12.52;6.10;;;;;;;;;;6165190;28;20462;-80
2024/01/15 07:19:04;;;;;;;24.17;7.97;;;;;;;;;;6175811;28;20120;-80
2024/01/15 07:22:07;;;;;;;20.20;7.05;;;;;;;;;;6173753;28;20354;-80
2024/01/15 07:25:19;;;;;;;19.95;7.20;;;;;;;;;;6161309;28;20054;-78
2024/01/15 07:28:46;;;;;;;16.92;6.90;;;;;;;;;;6138377;28;20129;-83
2024/01/15 07:31:49;;;;;;;15.40;6.05;;;;;;;;;;6160170;28;20038;-83
2024/01/15 07:34:59;;;;;;;19.38;6.28;;;;;;;;;;6174595;28;20337;-82
2024/01/15 07:38:01;;;;;;;13.23;5.57;;;;;;;;;;6137440;28;20086;-81
2024/01/15 07:41:06;;;;;;;17.85;6.10;;;;;;;;;;6170585;28;20204;-82
2024/01/15 07:44:07;;;;;;;14.38;6.05;;;;;;;;;;6166209;28;20131;-82
2024/01/15 07:47:09;;;;;;;17.00;6.80;;;;;;;;;;6181830;28;20054;-81
2024/01/15 07:50:11;;;;;;;14.40;5.95;;;;;;;;;;6150477;28;20049;-83
2024/01/15 07:53:14;;;;;;;11.47;5.37;;;;;;;;;;6178901;28;20050;-81
2024/01/15 07:56:16;;;;;;;15.52;6.25;;;;;;;;;;6179441;28;20054;-82
2024/01/15 07:59:18;;;;;;;14.00;5.47;;;;;;;;;;6183969;28;20038;-82
2024/01/15 08:02:26;;;;;;;18.42;6.50;;;;;;;;;;6116339;28;20591;-81
2024/01/15 08:05:35;;;;;;;15.93;7.38;;;;;;;;;;6105720;28;20137;-82
2024/01/15 08:08:54;;;;;;;19.30;7.68;;;;;;;;;;6121588;28;20125;-80
2024/01/15 08:12:09;;;;;;;16.05;6.60;;;;;;;;;;6139839;28;20070;-80
2024/01/15 08:15:14;;;;;;;20.45;7.13;;;;;;;;;;6101429;28;20038;-80
2024/01/15 08:18:24;;;;;;;20.52;7.55;;;;;;;;;;6117424;28;20050;-80
2024/01/15 08:21:31;;;;;;;26.60;7.28;;;;;;;;;;6160831;28;20054;-80
2024/01/15 08:24:44;;;;;;;23.40;8.20;;;;;;;;;;6126341;28;20050;-81
2024/01/15 08:28:01;;;;;;;22.90;7.80;;;;;;;;;;6124911;28;20050;-80
2024/01/15 08:31:34;;;;;;;;;;;;;;;;;;;;;
2024/01/15 08:34:57;;;;;;;23.35;8.35;;;;;;;;;;6107194;28;20038;-81
2024/01/15 08:38:02;;;;;;;21.53;9.00;;;;;;;;;;6167441;28;21430;-81
2024/01/15 08:41:28;;;;;;;21.13;8.15;;;;;;;;;;6134811;28;20057;-80
2024/01/15 08:44:47;;;;;;;25.42;8.70;;;;;;;;;;6101467;28;20050;-82
2024/01/15 08:47:56;;;;;;;24.73;8.23;;;;;;;;;;6033448;28;20062;-81
2024/01/15 08:51:01;;;;;;;25.45;8.82;;;;;;;;;;6138516;28;20100;-81
2024/01/15 08:54:05;;;;;;;25.27;8.23;;;;;;;;;;6134424;28;20141;-83
2024/01/15 08:57:16;;;;;;;20.67;7.72;;;;;;;;;;6166156;28;20724;-81
2024/01/15 09:00:18;;;;;;;24.35;7.82;;;;;;;;;;6161436;28;20076;-82
2024/01/15 09:03:26;;;;;;;21.20;7.40;;;;;;;;;;6160610;28;20519;-82
2024/01/15 09:06:33;;;;;;;21.77;7.77;;;;;;;;;;6175991;28;20050;-82
2024/01/15 09:09:37;;;;;;;26.45;8.77;;;;;;;;;;6164318;28;20454;-82
2024/01/15 09:12:42;;;;;;;16.05;6.90;;;;;;;;;;6170897;28;20092;-82
2024/01/15 09:15:46;;;;;;;22.92;7.68;;;;;;;;;;6151109;28;20133;-81
2024/01/15 09:18:50;;;;;;;19.90;7.57;;;;;;;;;;6142551;28;20081;-82
2024/01/15 09:21:55;;;;;;;21.30;7.60;;;;;;;;;;6155717;28;20590;-82
2024/01/15 09:25:01;;;;;;;17.65;6.60;;;;;;;;;;6174532;28;20084;-81
2024/01/15 09:28:03;;;;;;;24.10;8.02;;;;;;;;;;6164812;28;20049;-80
2024/01/15 09:31:06;;;;;;;17.40;7.43;;;;;;;;;;6157781;28;20152;-81
2024/01/15 09:34:08;;;;;;;21.33;7.53;;;;;;;;;;6173225;28;20051;-80
2024/01/15 09:37:23;;;;;;;20.63;7.68;;;;;;;;;;6103979;28;20280;-81
2024/01/15 09:40:47;;;;;;;20.10;7.28;;;;;;;;;;6128091;28;20043;-80
2024/01/15 09:43:52;;;;;;;18.83;7.85;;;;;;;;;;6139897;28;20127;-81
2024/01/15 09:47:04;;;;;;;18.60;7.07;;;;;;;;;;6114471;28;20041;-83
2024/01/15 09:50:10;;;;;;;13.82;5.15;;;;;;;;;;6099926;28;20089;-82
2024/01/15 09:53:17;;;;;;;16.63;5.50;;;;;;;;;;6121247;28;20050;-81
2024/01/15 09:56:23;;;;;;;12.00;5.45;;;;;;;;;;6177076;28;20077;-80
2024/01/15 09:59:28;;;;;;;14.88;5.57;;;;;;;;;;6168837;28;20066;-82
2024/01/15 10:02:30;;;;;;;15.68;6.03;;;;;;;;;;6172977;28;20504;-84
2024/01/15 10:05:32;;;;;;;13.65;5.90;;;;;;;;;;6173064;28;20137;-82
2024/01/15 10:08:39;;;;;;;14.98;6.32;;;;;;;;;;6089449;28;20065;-82
2024/01/15 10:11:49;;;;;;;16.05;5.80;;;;;;;;;;6118350;28;20100;-82
2024/01/15 10:15:02;;;;;;;13.25;6.05;;;;;;;;;;6132735;28;20523;-83
2024/01/15 10:18:10;;;;;;;16.45;6.40;;;;;;;;;;6115187;28;20054;-81
2024/01/15 10:21:14;;;;;;;15.43;6.73;;;;;;;;;;6162102;28;20050;-80
2024/01/15 10:24:17;;;;;;;12.73;6.07;;;;;;;;;;6212796;28;20049;-81
2024/01/15 10:27:19;;;;;;;10.77;4.75;;;;;;;;;;6188270;28;20501;-83
2024/01/15 10:30:21;;;;;;;12.20;5.47;;;;;;;;;;6169577;28;20054;-84
2024/01/15 10:33:26;;;;;;;9.73;4.28;;;;;;;;;;6181191;28;20046;-83
2024/01/15 10:36:29;;;;;;;12.45;5.53;;;;;;;;;;6156837;28;20106;-82
2024/01/15 10:39:31;;;;;;;10.52;4.88;;;;;;;;;;6161220;28;20050;-81
2024/01/15 10:42:37;;;;;;;10.75;4.78;;;;;;;;;;6161493;28;20164;-83
2024/01/15 10:45:40;;;;;;;17.33;5.57;;;;;;;;;;6174933;28;20049;-81
2024/01/15 10:48:42;;;;;;;13.27;5.68;;;;;;;;;;6158291;28;20071;-83
2024/01/15 10:51:44;;;;;;;11.23;5.25;;;;;;;;;;6174818;28;20050;-84
2024/01/15 10:54:47;;;;;;;15.20;4.97;;;;;;;;;;6186277;28;20133;-82
2024/01/15 10:57:49;;;;;;;14.25;5.72;;;;;;;;;;6188402;28;20074;-83
2024/01/15 11:00:52;;;;;;;11.27;4.97;;;;;;;;;;6169099;28;20049;-82
2024/01/15 11:03:57;;;;;;;11.50;6.10;;;;;;;;;;6182888;28;20097;-83
2024/01/15 11:06:59;;;;;;;12.43;4.57;;;;;;;;;;6174413;28;20054;-83
2024/01/15 11:10:03;;;;;;;14.32;5.20;;;;;;;;;;6168866;28;20448;-82
2024/01/15 11:13:08;;;;;;;13.13;5.68;;;;;;;;;;6177958;28;20081;-84
2024/01/15 11:16:12;;;;;;;11.05;4.88;;;;;;;;;;6169424;28;20048;-83
2024/01/15 11:19:14;;;;;;;12.10;5.00;;;;;;;;;;6163238;28;20562;-82
2024/01/15 11:22:32;;;;;;;12.90;5.45;;;;;;;;;;6174063;28;20133;-83
2024/01/15 11:25:37;;;;;;;12.18;5.57;;;;;;;;;;6191824;28;20085;-81
2024/01/15 11:28:48;;;;;;;15.02;6.20;;;;;;;;;;6193467;28;20043;-81
2024/01/15 11:31:50;;;;;;;16.17;5.78;;;;;;;;;;6185527;28;20073;-83
2024/01/15 11:35:08;;;;;;;14.23;5.97;;;;;;;;;;6183937;28;20116;-82
2024/01/15 11:38:11;;;;;;;14.75;5.63;;;;;;;;;;6176434;28;20047;-82
2024/01/15 11:41:17;;;;;;;14.63;5.82;;;;;;;;;;6172422;28;20052;-83
2024/01/15 11:44:19;;;;;;;13.13;4.88;;;;;;;;;;6151668;28;20116;-84
2024/01/15 11:47:41;;;;;;;12.35;5.38;;;;;;;;;;6179998;28;20110;-83
2024/01/15 11:50:49;;;;;;;8.10;3.53;;;;;;;;;;6170389;28;20479;-83
2024/01/15 11:53:58;;;;;;;10.38;4.40;;;;;;;;;;6176177;28;20042;-82
2024/01/15 11:57:07;;;;;;;8.32;4.70;;;;;;;;;;6189957;28;20046;-83
2024/01/15 12:00:11;;;;;;;7.50;4.13;;;;;;;;;;6171131;28;20039;-83
2024/01/15 12:03:13;;;;;;;7.43;3.53;;;;;;;;;;6174856;28;20848;-84
2024/01/15 12:06:15;;;;;;;6.15;3.20;;;;;;;;;;6179867;28;20050;-83
2024/01/15 12:09:21;;;;;;;5.85;3.40;;;;;;;;;;6166663;28;20046;-84
2024/01/15 12:13:02;;;;;;;5.90;2.90;;;;;;;;;;6174305;28;20148;-82
2024/01/15 12:16:04;;;;;;;10.02;3.20;;;;;;;;;;6178074;28;20046;-83
2024/01/15 12:19:06;;;;;;;5.25;2.72;;;;;;;;;;6176403;28;20046;-83
2024/01/15 12:22:09;;;;;;;4.03;2.28;;;;;;;;;;6169392;28;20055;-83
2024/01/15 12:25:11;;;;;;;4.05;2.10;;;;;;;;;;6175182;28;20054;-82
2024/01/15 12:28:13;;;;;;;3.47;2.13;;;;;;;;;;6193423;28;20050;-83
2024/01/15 12:31:14;;;;;;;3.22;1.80;;;;;;;;;;6160588;28;20039;-84
2024/01/15 12:34:17;;;;;;;2.83;2.08;;;;;;;;;;6190531;28;20046;-86
2024/01/15 12:37:19;;;;;;;2.57;1.83;;;;;;;;;;6184174;28;20045;-83
2024/01/15 12:40:22;;;;;;;1.83;1.52;;;;;;;;;;6216952;28;20046;-85
2024/01/15 12:43:24;;;;;;;2.15;1.65;;;;;;;;;;6168282;28;20138;-86
2024/01/15 12:46:29;;;;;;;1.83;1.48;;;;;;;;;;6170732;28;20066;-84
2024/01/15 12:49:32;;;;;;;1.65;1.48;;;;;;;;;;6187489;28;20050;-85
2024/01/15 12:52:37;;;;;;;3.00;1.50;;;;;;;;;;6177029;28;20046;-85
2024/01/15 12:55:46;;;;;;;1.38;1.27;;;;;;;;;;6160166;28;20054;-84
2024/01/15 12:58:50;;;;;;;2.85;1.20;;;;;;;;;;6173744;28;20133;-83
2024/01/15 13:01:52;;;;;;;0.90;0.90;;;;;;;;;;6181762;28;20062;-84
2024/01/15 13:04:59;;;;;;;2.25;1.30;;;;;;;;;;6149937;28;20047;-83
2024/01/15 13:08:03;;;;;;;1.42;1.20;;;;;;;;;;6187033;28;20054;-83
2024/01/15 13:11:05;;;;;;;1.23;1.13;;;;;;;;;;6146601;28;20054;-85
2024/01/15 13:14:07;;;;;;;1.05;0.95;;;;;;;;;;6178025;28;20218;-81
2024/01/15 13:17:09;;;;;;;2.15;1.58;;;;;;;;;;6172791;28;20436;-82
2024/01/15 13:20:12;;;;;;;1.98;1.20;;;;;;;;;;6184852;28;20440;-86
2024/01/15 13:23:14;;;;;;;2.40;1.60;;;;;;;;;;6175753;28;20556;-82
2024/01/15 13:26:19;;;;;;;3.85;1.75;;;;;;;;;;6183401;28;20054;-81
2024/01/15 13:29:21;;;;;;;2.78;1.85;;;;;;;;;;6170438;28;20047;-81
2024/01/15 13:32:28;;;;;;;2.85;1.65;;;;;;;;;;6177482;28;20054;-84
2024/01/15 13:35:35;;;;;;;3.08;1.70;;;;;;;;;;6161668;28;20046;-78
2024/01/15 13:38:41;;;;;;;2.35;1.70;;;;;;;;;;6089782;28;20142;-81
2024/01/15 13:41:46;;;;;;;2.30;1.60;;;;;;;;;;6151833;28;20122;-81
2024/01/15 13:44:49;;;;;;;2.30;1.30;;;;;;;;;;6192220;28;20077;-81
2024/01/15 13:47:51;;;;;;;2.00;1.80;;;;;;;;;;6199416;28;20966;-83
2024/01/15 13:50:53;;;;;;;4.50;2.33;;;;;;;;;;6169889;28;20104;-81
2024/01/15 13:53:55;;;;;;;7.20;2.25;;;;;;;;;;6189156;28;20049;-85
2024/01/15 13:56:58;;;;;;;4.35;1.98;;;;;;;;;;6190297;28;20053;-83
2024/01/15 14:00:00;;;;;;;4.88;2.00;;;;;;;;;;6177050;28;20072;-82
2024/01/15 14:03:03;;;;;;;7.97;2.40;;;;;;;;;;6162916;28;20043;-85
2024/01/15 14:06:08;;;;;;;5.13;2.15;;;;;;;;;;6186391;28;20068;-86
2024/01/15 14:09:10;;;;;;;3.78;2.40;;;;;;;;;;6152115;28;20042;-83
2024/01/15 14:12:12;;;;;;;3.47;1.95;;;;;;;;;;6161883;28;20049;-82
2024/01/15 14:15:14;;;;;;;4.82;2.63;;;;;;;;;;6165704;28;20455;-83
2024/01/15 14:18:17;;;;;;;2.97;2.28;;;;;;;;;;6170165;28;20050;-82
2024/01/15 14:21:21;;;;;;;3.33;2.53;;;;;;;;;;6176266;28;20053;-83
2024/01/15 14:24:23;;;;;;;3.70;2.42;;;;;;;;;;6170816;28;20046;-83
2024/01/15 14:27:24;;;;;;;6.60;3.40;;;;;;;;;;6163689;28;20045;-84
2024/01/15 14:30:27;;;;;;;6.90;3.63;;;;;;;;;;6176167;28;20136;-82
2024/01/15 14:33:29;;;;;;;4.10;2.47;;;;;;;;;;6177724;28;20124;-84
2024/01/15 14:36:31;;;;;;;4.03;2.55;;;;;;;;;;6183015;28;20050;-83
2024/01/15 14:39:34;;;;;;;7.30;3.25;;;;;;;;;;6172743;28;20047;-84
2024/01/15 14:42:36;;;;;;;5.75;3.47;;;;;;;;;;6178739;28;20050;-83
2024/01/15 14:45:38;;;;;;;6.23;3.13;;;;;;;;;;6178595;28;20061;-84
2024/01/15 14:48:41;;;;;;;;;;;;;;;;;;6188480;28;20054;-83
2024/01/15 14:51:44;;;;;;;6.80;3.08;;;;;;;;;;6202096;28;19950;-82
2024/01/15 14:54:47;;;;;;;8.70;3.25;;;;;;;;;;6199821;28;20099;-82
2024/01/15 14:57:50;;;;;;;4.22;2.70;;;;;;;;;;6204819;28;20054;-82
2024/01/15 15:00:52;;;;;;;4.78;2.60;;;;;;;;;;6200104;28;20050;-81
2024/01/15 15:03:56;;;;;;;7.07;3.08;;;;;;;;;;6184691;28;20039;-81
2024/01/15 15:06:58;;;;;;;5.47;3.50;;;;;;;;;;6184194;28;20133;-81
2024/01/15 15:10:00;;;;;;;5.32;3.78;;;;;;;;;;6181065;28;20034;-80
2024/01/15 15:13:02;;;;;;;7.60;3.00;;;;;;;;;;6189221;28;20054;-80
2024/01/15 15:16:05;;;;;;;2.28;1.95;;;;;;;;;;6180714;28;20054;-82
2024/01/15 15:19:08;;;;;;;5.60;4.35;;;;;;;;;;6174297;28;20142;-84
2024/01/15 15:22:10;;;;;;;5.10;3.33;;;;;;;;;;6178360;28;20046;-81
2024/01/15 15:25:12;;;;;;;5.03;3.10;;;;;;;;;;6188992;28;20030;-78
2024/01/15 15:28:16;;;;;;;4.35;2.80;;;;;;;;;;6207960;28;20053;-82
2024/01/15 15:31:17;;;;;;;6.38;3.40;;;;;;;;;;6191506;28;20046;-82
2024/01/15 15:34:19;;;;;;;6.75;3.83;;;;;;;;;;6207989;28;20030;-81
2024/01/15 15:37:21;;;;;;;7.30;3.30;;;;;;;;;;6197652;28;20050;-81
2024/01/15 15:40:24;;;;;;;4.70;3.30;;;;;;;;;;6191349;28;20039;-82
2024/01/15 15:43:26;;;;;;;8.50;3.30;;;;;;;;;;6176919;23;20175;-82
2024/01/15 15:46:28;;;;;;;5.90;3.90;;;;;;;;;;6180972;28;20114;-80
2024/01/15 15:49:30;;;;;;;2.75;2.33;;;;;;;;;;6166279;28;20066;-82
2024/01/15 15:52:32;;;;;;;5.45;2.60;;;;;;;;;;6195116;28;20059;-81
2024/01/15 15:55:36;;;;;;;4.05;2.80;;;;;;;;;;6187873;28;20046;-81
2024/01/15 15:58:38;;;;;;;2.70;2.17;;;;;;;;;;6174657;28;20050;-80
2024/01/15 16:01:40;;;;;;;4.63;2.70;;;;;;;;;;6183298;28;20061;-77
2024/01/15 16:04:42;;;;;;;3.30;2.92;;;;;;;;;;6179599;28;20136;-80
2024/01/15 16:07:44;;;;;;;7.47;4.15;;;;;;;;;;6178537;28;20193;-78
2024/01/15 16:10:48;;;;;;;4.95;2.50;;;;;;;;;;6157279;28;20157;-78
2024/01/15 16:13:50;;;;;;;5.88;3.75;;;;;;;;;;6176649;28;20125;-79
2024/01/15 16:16:56;;;;;;;18.30;7.88;;;;;;;;;;6182503;28;20049;-78
2024/01/15 16:20:18;;;;;;;3.35;2.40;;;;;;;;;;6170731;28;20137;-77
2024/01/15 16:23:40;;;;;;;2.60;1.67;;;;;;;;;;6163972;28;20111;-78
2024/01/15 16:27:01;;;;;;;3.38;2.70;;;;;;;;;;6172712;28;20512;-79
2024/01/15 16:30:04;;;;;;;5.40;2.10;;;;;;;;;;6160558;28;20042;-80
2024/01/15 16:33:17;;;;;;;4.28;2.42;;;;;;;;;;6176396;28;20057;-81
2024/01/15 16:36:20;;;;;;;16.90;6.85;;;;;;;;;;6187199;28;20081;-81
2024/01/15 16:39:22;;;;;;;6.25;4.00;;;;;;;;;;6178339;28;20065;-80
2024/01/15 16:42:24;;;;;;;14.25;6.47;;;;;;;;;;6183022;28;20042;-81
2024/01/15 16:45:26;;;;;;;67.53;14.73;;;;;;;;;;6195073;28;20054;-80
2024/01/15 16:48:28;;;;;;;4.13;2.70;;;;;;;;;;6183024;28;20058;-80
2024/01/15 16:51:30;;;;;;;14.15;5.32;;;;;;;;;;6183307;28;20058;-80
2024/01/15 16:54:33;;;;;;;3.25;2.40;;;;;;;;;;6176329;28;20045;-80
2024/01/15 16:57:35;;;;;;;4.57;2.30;;;;;;;;;;6181791;28;20121;-80
2024/01/15 17:00:37;;;;;;;3.03;2.05;;;;;;;;;;6183534;28;20049;-81
2024/01/15 17:03:41;;;;;;;3.55;2.35;;;;;;;;;;6204732;28;20068;-80
2024/01/15 17:06:43;;;;;;;6.55;2.60;;;;;;;;;;6182835;28;20046;-80
2024/01/15 17:09:45;;;;;;;5.40;1.90;;;;;;;;;;6165135;28;20042;-79
2024/01/15 17:12:47;;;;;;;3.75;2.00;;;;;;;;;;6185248;28;20050;-78
2024/01/15 17:15:58;;;;;;;4.57;2.88;;;;;;;;;;6136503;28;20051;-79
2024/01/15 17:19:14;;;;;;;3.53;2.00;;;;;;;;;;6165905;28;20042;-79
2024/01/15 17:22:16;;;;;;;3.40;1.83;;;;;;;;;;6194281;28;20041;-80
2024/01/15 17:25:19;;;;;;;3.30;2.13;;;;;;;;;;6198547;28;20050;-80
2024/01/15 17:28:22;;;;;;;4.28;2.25;;;;;;;;;;6211095;28;20283;-80
2024/01/15 17:31:25;;;;;;;3.97;2.63;;;;;;;;;;6187346;28;20062;-82
2024/01/15 17:34:27;;;;;;;5.60;2.40;;;;;;;;;;6187928;28;20409;-82
2024/01/15 17:37:29;;;;;;;7.30;3.13;;;;;;;;;;6187903;28;20054;-80
2024/01/15 17:40:31;;;;;;;3.00;1.95;;;;;;;;;;6184171;28;20057;-79
2024/01/15 17:43:33;;;;;;;3.75;2.25;;;;;;;;;;6190764;28;20046;-80
2024/01/15 17:46:35;;;;;;;6.18;2.40;;;;;;;;;;6181875;28;20050;-80
2024/01/15 17:49:37;;;;;;;4.15;2.33;;;;;;;;;;6161676;28;20080;-79
2024/01/15 17:52:39;;;;;;;5.05;2.65;;;;;;;;;;6163187;28;20058;-79
2024/01/15 17:55:42;;;;;;;14.82;6.05;;;;;;;;;;6184720;28;20073;-80
2024/01/15 17:58:44;;;;;;;6.90;2.55;;;;;;;;;;6181084;28;20038;-80
2024/01/15 18:01:46;;;;;;;7.82;3.17;;;;;;;;;;6184575;28;20045;-80
2024/01/15 18:04:48;;;;;;;4.47;2.00;;;;;;;;;;6185597;28;20072;-80
2024/01/15 18:07:50;;;;;;;4.28;2.40;;;;;;;;;;6183594;28;20520;-79
2024/01/15 18:10:52;;;;;;;6.05;2.47;;;;;;;;;;6179023;28;20492;-80
2024/01/15 18:13:53;;;;;;;3.50;1.85;;;;;;;;;;6177289;28;20047;-80
2024/01/15 18:16:56;;;;;;;3.13;1.80;;;;;;;;;;6172136;28;20149;-78